TKJ4144 LTAC-LTFD
Flight info
| Callsign | TKJ4144 |
|---|---|
| Flight time | 1h 6m |
| Altitude | 30000 |
| Route | YAVRU UA4 ERKAL UL615 BKZ UM603 IST UG8 BIG UG80 KONEN |
| Aircraft | B738/M-SDE2E3FGHIRWXY/LB1 |
Departure
| Time | 2026-04-15 12:57 |
|---|---|
| Airport | Esenboğa International Airport (LTAC) |
Arrival
| Time | 2026-04-15 14:03 |
|---|---|
| Airport | Balıkesir Koca Seyit Airport (LTFD) |
| Time | Latitude | Longitude | Altitude | Speed | Heading |
|---|---|---|---|---|---|
| 2026-04-15 11:53 | 40.11714 | 32.99561 | 3112 ft | 0 kts | 177° |
| 2026-04-15 12:38 | 40.11729 | 32.99560 | 3112 ft | 4 kts | 177° |
| 2026-04-15 12:39 | 40.11755 | 32.99558 | 3112 ft | 4 kts | 178° |
| 2026-04-15 12:39 | 40.11777 | 32.99565 | 3112 ft | 4 kts | 232° |
| 2026-04-15 12:39 | 40.11786 | 32.99596 | 3112 ft | 4 kts | 265° |
| 2026-04-15 12:39 | 40.11786 | 32.99605 | 3112 ft | 0 kts | 267° |
| 2026-04-15 12:43 | 40.11786 | 32.99603 | 3112 ft | 1 kts | 267° |
| 2026-04-15 12:43 | 40.11786 | 32.99590 | 3112 ft | 3 kts | 267° |
| 2026-04-15 12:44 | 40.11784 | 32.99552 | 3112 ft | 6 kts | 267° |
| 2026-04-15 12:44 | 40.11780 | 32.99495 | 3112 ft | 7 kts | 263° |
| 2026-04-15 12:44 | 40.11773 | 32.99436 | 3112 ft | 7 kts | 260° |
| 2026-04-15 12:44 | 40.11763 | 32.99378 | 3112 ft | 6 kts | 257° |
| 2026-04-15 12:45 | 40.11752 | 32.99322 | 3112 ft | 6 kts | 253° |
| 2026-04-15 12:45 | 40.11738 | 32.99269 | 3112 ft | 6 kts | 250° |
| 2026-04-15 12:45 | 40.11722 | 32.99218 | 3112 ft | 6 kts | 246° |
| 2026-04-15 12:45 | 40.11708 | 32.99173 | 3112 ft | 4 kts | 259° |
| 2026-04-15 12:46 | 40.11719 | 32.99137 | 3112 ft | 4 kts | 313° |
| 2026-04-15 12:46 | 40.11745 | 32.99116 | 3112 ft | 4 kts | 330° |
| 2026-04-15 12:46 | 40.11769 | 32.99093 | 3112 ft | 4 kts | 320° |
| 2026-04-15 12:46 | 40.11790 | 32.99064 | 3112 ft | 4 kts | 309° |
| 2026-04-15 12:47 | 40.11812 | 32.99037 | 3112 ft | 4 kts | 332° |
| 2026-04-15 12:47 | 40.11840 | 32.99040 | 3113 ft | 4 kts | 25° |
| 2026-04-15 12:47 | 40.11864 | 32.99061 | 3113 ft | 4 kts | 35° |
| 2026-04-15 12:47 | 40.11888 | 32.99082 | 3113 ft | 4 kts | 35° |
| 2026-04-15 12:48 | 40.11910 | 32.99103 | 3113 ft | 4 kts | 34° |
| 2026-04-15 12:48 | 40.11933 | 32.99125 | 3113 ft | 4 kts | 37° |
| 2026-04-15 12:48 | 40.11961 | 32.99153 | 3114 ft | 6 kts | 37° |
| 2026-04-15 12:48 | 40.12002 | 32.99193 | 3114 ft | 9 kts | 36° |
| 2026-04-15 12:49 | 40.12057 | 32.99245 | 3115 ft | 11 kts | 36° |
| 2026-04-15 12:49 | 40.12112 | 32.99297 | 3116 ft | 12 kts | 36° |
| 2026-04-15 12:49 | 40.12176 | 32.99357 | 3117 ft | 14 kts | 36° |
| 2026-04-15 12:49 | 40.12258 | 32.99437 | 3117 ft | 16 kts | 36° |
| 2026-04-15 12:50 | 40.12350 | 32.99525 | 3119 ft | 17 kts | 36° |
| 2026-04-15 12:50 | 40.12450 | 32.99619 | 3120 ft | 18 kts | 36° |
| 2026-04-15 12:50 | 40.12555 | 32.99721 | 3121 ft | 19 kts | 36° |
| 2026-04-15 12:50 | 40.12668 | 32.99829 | 3122 ft | 21 kts | 36° |
| 2026-04-15 12:51 | 40.12790 | 32.99944 | 3123 ft | 22 kts | 36° |
| 2026-04-15 12:51 | 40.12917 | 33.00066 | 3124 ft | 23 kts | 36° |
| 2026-04-15 12:51 | 40.13050 | 33.00193 | 3123 ft | 24 kts | 36° |
| 2026-04-15 12:51 | 40.13187 | 33.00324 | 3127 ft | 24 kts | 36° |
| 2026-04-15 12:52 | 40.13317 | 33.00448 | 3128 ft | 23 kts | 36° |
| 2026-04-15 12:52 | 40.13442 | 33.00567 | 3130 ft | 22 kts | 36° |
| 2026-04-15 12:52 | 40.13564 | 33.00684 | 3131 ft | 21 kts | 36° |
| 2026-04-15 12:52 | 40.13684 | 33.00800 | 3132 ft | 21 kts | 36° |
| 2026-04-15 12:53 | 40.13798 | 33.00908 | 3133 ft | 20 kts | 36° |
| 2026-04-15 12:53 | 40.13882 | 33.00988 | 3134 ft | 10 kts | 36° |
| 2026-04-15 12:53 | 40.13941 | 33.01045 | 3134 ft | 12 kts | 36° |
| 2026-04-15 12:53 | 40.13996 | 33.01076 | 3135 ft | 7 kts | 9° |
| 2026-04-15 12:54 | 40.14050 | 33.01064 | 3135 ft | 6 kts | 335° |
| 2026-04-15 12:54 | 40.14084 | 33.01026 | 3135 ft | 8 kts | 308° |
| 2026-04-15 12:54 | 40.14104 | 33.00966 | 3135 ft | 6 kts | 287° |
| 2026-04-15 12:54 | 40.14129 | 33.00902 | 3135 ft | 9 kts | 304° |
| 2026-04-15 12:55 | 40.14171 | 33.00827 | 3135 ft | 12 kts | 306° |
| 2026-04-15 12:55 | 40.14186 | 33.00799 | 3135 ft | 3 kts | 306° |
| 2026-04-15 12:55 | 40.14206 | 33.00763 | 3135 ft | 6 kts | 306° |
| 2026-04-15 12:55 | 40.14223 | 33.00714 | 3135 ft | 3 kts | 269° |
| 2026-04-15 12:56 | 40.14206 | 33.00686 | 3135 ft | 5 kts | 218° |
| 2026-04-15 12:56 | 40.14169 | 33.00650 | 3135 ft | 10 kts | 217° |
| 2026-04-15 12:56 | 40.14015 | 33.00502 | 3134 ft | 56 kts | 216° |
| 2026-04-15 12:56 | 40.13499 | 33.00010 | 3126 ft | 125 kts | 216° |
| 2026-04-15 12:57 | 40.12640 | 32.99192 | 3165 ft | 176 kts | 216° |
| 2026-04-15 12:57 | 40.11633 | 32.98258 | 3910 ft | 176 kts | 216° |
| 2026-04-15 12:57 | 40.10638 | 32.97313 | 4798 ft | 177 kts | 217° |
| 2026-04-15 12:57 | 40.09592 | 32.96320 | 5294 ft | 200 kts | 217° |
| 2026-04-15 12:58 | 40.08397 | 32.95187 | 5501 ft | 225 kts | 217° |
| 2026-04-15 12:58 | 40.07068 | 32.93932 | 5780 ft | 244 kts | 217° |
| 2026-04-15 12:58 | 40.05677 | 32.92623 | 6342 ft | 253 kts | 217° |
| 2026-04-15 12:58 | 40.04236 | 32.91267 | 7169 ft | 255 kts | 217° |
| 2026-04-15 12:59 | 40.02258 | 32.87624 | 8831 ft | 256 kts | 264° |
| 2026-04-15 12:59 | 40.02436 | 32.85254 | 9263 ft | 275 kts | 290° |
| 2026-04-15 12:59 | 40.03407 | 32.83058 | 9929 ft | 283 kts | 306° |
| 2026-04-15 13:00 | 40.04620 | 32.80980 | 10505 ft | 297 kts | 307° |
| 2026-04-15 13:00 | 40.05478 | 32.79529 | 10631 ft | 314 kts | 306° |
| 2026-04-15 13:00 | 40.06849 | 32.77180 | 10863 ft | 336 kts | 306° |
| 2026-04-15 13:00 | 40.08282 | 32.74695 | 11397 ft | 346 kts | 306° |
| 2026-04-15 13:01 | 40.09728 | 32.72173 | 12207 ft | 347 kts | 306° |
| 2026-04-15 13:01 | 40.11169 | 32.69650 | 13062 ft | 347 kts | 306° |
| 2026-04-15 13:01 | 40.12615 | 32.67112 | 13809 ft | 350 kts | 306° |
| 2026-04-15 13:01 | 40.14076 | 32.64546 | 14498 ft | 354 kts | 306° |
| 2026-04-15 13:02 | 40.15551 | 32.61955 | 15217 ft | 356 kts | 306° |
| 2026-04-15 13:02 | 40.17035 | 32.59346 | 15903 ft | 359 kts | 306° |
| 2026-04-15 13:02 | 40.18532 | 32.56712 | 16563 ft | 362 kts | 306° |
| 2026-04-15 13:02 | 40.20044 | 32.54049 | 17199 ft | 366 kts | 306° |
| 2026-04-15 13:03 | 40.21690 | 32.51500 | 17853 ft | 368 kts | 313° |
| 2026-04-15 13:03 | 40.23547 | 32.49157 | 18484 ft | 372 kts | 316° |
| 2026-04-15 13:03 | 40.25468 | 32.46883 | 19087 ft | 374 kts | 316° |
| 2026-04-15 13:03 | 40.27410 | 32.44591 | 19662 ft | 377 kts | 316° |
| 2026-04-15 13:04 | 40.29351 | 32.42266 | 20242 ft | 379 kts | 315° |
| 2026-04-15 13:04 | 40.31296 | 32.39900 | 20803 ft | 382 kts | 315° |
| 2026-04-15 13:04 | 40.33236 | 32.37513 | 21362 ft | 383 kts | 314° |
| 2026-04-15 13:04 | 40.35182 | 32.35107 | 21868 ft | 386 kts | 314° |
| 2026-04-15 13:05 | 40.37140 | 32.32679 | 22361 ft | 389 kts | 314° |
| 2026-04-15 13:05 | 40.39114 | 32.30230 | 22860 ft | 391 kts | 314° |
| 2026-04-15 13:05 | 40.41095 | 32.27772 | 23338 ft | 393 kts | 314° |
| 2026-04-15 13:05 | 40.43064 | 32.25327 | 23814 ft | 395 kts | 314° |
| 2026-04-15 13:06 | 40.45064 | 32.22840 | 24243 ft | 397 kts | 314° |
| 2026-04-15 13:06 | 40.46982 | 32.20224 | 24668 ft | 396 kts | 304° |
| 2026-04-15 13:06 | 40.48340 | 32.17102 | 25104 ft | 394 kts | 292° |
| 2026-04-15 13:06 | 40.49353 | 32.13748 | 25554 ft | 395 kts | 290° |
| 2026-04-15 13:07 | 40.50318 | 32.10363 | 25925 ft | 397 kts | 290° |
| 2026-04-15 13:07 | 40.51286 | 32.06953 | 26315 ft | 398 kts | 290° |
| 2026-04-15 13:07 | 40.52265 | 32.03543 | 26716 ft | 400 kts | 290° |
| 2026-04-15 13:07 | 40.53261 | 32.00115 | 27094 ft | 401 kts | 290° |
| 2026-04-15 13:08 | 40.54265 | 31.96694 | 27552 ft | 400 kts | 290° |
| 2026-04-15 13:08 | 40.55268 | 31.93285 | 28065 ft | 398 kts | 290° |
| 2026-04-15 13:08 | 40.56263 | 31.89906 | 28581 ft | 395 kts | 290° |
| 2026-04-15 13:08 | 40.57248 | 31.86553 | 29104 ft | 392 kts | 290° |
| 2026-04-15 13:09 | 40.58225 | 31.83223 | 29584 ft | 389 kts | 290° |
| 2026-04-15 13:09 | 40.59135 | 31.79884 | 30042 ft | 387 kts | 288° |
| 2026-04-15 13:09 | 40.59975 | 31.76526 | 30474 ft | 385 kts | 287° |
| 2026-04-15 13:09 | 40.60775 | 31.73225 | 30928 ft | 383 kts | 287° |
| 2026-04-15 13:10 | 40.61540 | 31.70052 | 31343 ft | 381 kts | 287° |
| 2026-04-15 13:10 | 40.62346 | 31.66729 | 31659 ft | 382 kts | 286° |
| 2026-04-15 13:10 | 40.63158 | 31.63396 | 31958 ft | 383 kts | 286° |
| 2026-04-15 13:10 | 40.63977 | 31.60056 | 32181 ft | 385 kts | 286° |
| 2026-04-15 13:11 | 40.65633 | 31.53316 | 32156 ft | 386 kts | 286° |
| 2026-04-15 13:11 | 40.67272 | 31.46657 | 32160 ft | 379 kts | 286° |
| 2026-04-15 13:12 | 40.68743 | 31.40657 | 32161 ft | 381 kts | 286° |
| 2026-04-15 13:12 | 40.70361 | 31.34043 | 32174 ft | 382 kts | 286° |
| 2026-04-15 13:13 | 40.71991 | 31.27364 | 32165 ft | 384 kts | 286° |
| 2026-04-15 13:13 | 40.73615 | 31.20683 | 32167 ft | 385 kts | 286° |
| 2026-04-15 13:14 | 40.75249 | 31.13949 | 32164 ft | 385 kts | 286° |
| 2026-04-15 13:14 | 40.76877 | 31.07218 | 32162 ft | 385 kts | 286° |
| 2026-04-15 13:15 | 40.78457 | 31.00665 | 32165 ft | 385 kts | 286° |
| 2026-04-15 13:15 | 40.80076 | 30.93933 | 32161 ft | 384 kts | 286° |
| 2026-04-15 13:16 | 40.81686 | 30.87219 | 32169 ft | 384 kts | 285° |
| 2026-04-15 13:16 | 40.83284 | 30.80535 | 32164 ft | 384 kts | 285° |
| 2026-04-15 13:17 | 40.84886 | 30.73817 | 32165 ft | 384 kts | 285° |
| 2026-04-15 13:17 | 40.86484 | 30.67088 | 32163 ft | 384 kts | 285° |
| 2026-04-15 13:18 | 40.87787 | 30.60262 | 32170 ft | 383 kts | 282° |
| 2026-04-15 13:18 | 40.88971 | 30.53406 | 32156 ft | 383 kts | 282° |
| 2026-04-15 13:19 | 40.90175 | 30.46537 | 32156 ft | 383 kts | 282° |
| 2026-04-15 13:19 | 40.91389 | 30.39672 | 32157 ft | 384 kts | 282° |
| 2026-04-15 13:20 | 40.92495 | 30.32780 | 32138 ft | 383 kts | 271° |
| 2026-04-15 13:20 | 40.92058 | 30.29329 | 32166 ft | 385 kts | 250° |
| 2026-04-15 13:20 | 40.90832 | 30.26164 | 32173 ft | 386 kts | 248° |
| 2026-04-15 13:21 | 40.89102 | 30.19487 | 32158 ft | 384 kts | 257° |
| 2026-04-15 13:21 | 40.87784 | 30.12638 | 32155 ft | 385 kts | 258° |
| 2026-04-15 13:22 | 40.86470 | 30.05775 | 32152 ft | 386 kts | 257° |
| 2026-04-15 13:22 | 40.85112 | 29.98914 | 32160 ft | 386 kts | 257° |
| 2026-04-15 13:23 | 40.83724 | 29.92046 | 32158 ft | 387 kts | 256° |
| 2026-04-15 13:23 | 40.82432 | 29.85710 | 32159 ft | 388 kts | 256° |
| 2026-04-15 13:24 | 40.81022 | 29.78827 | 32161 ft | 388 kts | 256° |
| 2026-04-15 13:24 | 40.79605 | 29.71939 | 32153 ft | 389 kts | 256° |
| 2026-04-15 13:25 | 40.78185 | 29.65050 | 32159 ft | 388 kts | 256° |
| 2026-04-15 13:25 | 40.76762 | 29.58172 | 32157 ft | 388 kts | 256° |
| 2026-04-15 13:26 | 40.75334 | 29.51294 | 32158 ft | 388 kts | 256° |
| 2026-04-15 13:26 | 40.73905 | 29.44430 | 32156 ft | 388 kts | 256° |
| 2026-04-15 13:27 | 40.72472 | 29.37568 | 32154 ft | 388 kts | 256° |
| 2026-04-15 13:27 | 40.71035 | 29.30715 | 32158 ft | 388 kts | 256° |
| 2026-04-15 13:28 | 40.69594 | 29.23862 | 32157 ft | 388 kts | 256° |
| 2026-04-15 13:28 | 40.68150 | 29.17015 | 32157 ft | 388 kts | 256° |
| 2026-04-15 13:29 | 40.66710 | 29.10210 | 32156 ft | 388 kts | 256° |
| 2026-04-15 13:29 | 40.65256 | 29.03361 | 32160 ft | 388 kts | 256° |
| 2026-04-15 13:30 | 40.63796 | 28.96506 | 32169 ft | 389 kts | 255° |
| 2026-04-15 13:30 | 40.62329 | 28.89645 | 32165 ft | 389 kts | 255° |
| 2026-04-15 13:31 | 40.61596 | 28.86224 | 31968 ft | 386 kts | 255° |
| 2026-04-15 13:31 | 40.60875 | 28.82866 | 31708 ft | 376 kts | 255° |
| 2026-04-15 13:31 | 40.60172 | 28.79598 | 31448 ft | 368 kts | 256° |
| 2026-04-15 13:31 | 40.59477 | 28.76370 | 31195 ft | 365 kts | 256° |
| 2026-04-15 13:32 | 40.58783 | 28.73149 | 30952 ft | 365 kts | 256° |
| 2026-04-15 13:32 | 40.58090 | 28.69937 | 30704 ft | 365 kts | 256° |
| 2026-04-15 13:32 | 40.57396 | 28.66724 | 30457 ft | 365 kts | 256° |
| 2026-04-15 13:32 | 40.56699 | 28.63504 | 30212 ft | 365 kts | 256° |
| 2026-04-15 13:33 | 40.56002 | 28.60289 | 29961 ft | 366 kts | 256° |
| 2026-04-15 13:33 | 40.55305 | 28.57074 | 29714 ft | 366 kts | 256° |
| 2026-04-15 13:33 | 40.54606 | 28.53859 | 29466 ft | 366 kts | 256° |
| 2026-04-15 13:33 | 40.53905 | 28.50637 | 29219 ft | 366 kts | 256° |
| 2026-04-15 13:34 | 40.53203 | 28.47422 | 28966 ft | 365 kts | 256° |
| 2026-04-15 13:34 | 40.52503 | 28.44215 | 28719 ft | 365 kts | 256° |
| 2026-04-15 13:34 | 40.51802 | 28.41014 | 28466 ft | 364 kts | 256° |
| 2026-04-15 13:34 | 40.51103 | 28.37824 | 28217 ft | 363 kts | 256° |
| 2026-04-15 13:35 | 40.50415 | 28.34687 | 27967 ft | 361 kts | 256° |
| 2026-04-15 13:35 | 40.49719 | 28.31520 | 27717 ft | 360 kts | 256° |
| 2026-04-15 13:35 | 40.49025 | 28.28365 | 27457 ft | 359 kts | 256° |
| 2026-04-15 13:35 | 40.48331 | 28.25216 | 27215 ft | 358 kts | 256° |
| 2026-04-15 13:36 | 40.47641 | 28.22087 | 26968 ft | 356 kts | 256° |
| 2026-04-15 13:36 | 40.46951 | 28.18966 | 26714 ft | 355 kts | 256° |
| 2026-04-15 13:36 | 40.46264 | 28.15859 | 26466 ft | 354 kts | 256° |
| 2026-04-15 13:36 | 40.45577 | 28.12760 | 26216 ft | 352 kts | 255° |
| 2026-04-15 13:37 | 40.44892 | 28.09673 | 25965 ft | 351 kts | 256° |
| 2026-04-15 13:37 | 40.44209 | 28.06598 | 25716 ft | 350 kts | 256° |
| 2026-04-15 13:37 | 40.43527 | 28.03534 | 25467 ft | 349 kts | 256° |
| 2026-04-15 13:37 | 40.42845 | 28.00476 | 25218 ft | 349 kts | 256° |
| 2026-04-15 13:38 | 40.42164 | 27.97423 | 24966 ft | 348 kts | 255° |
| 2026-04-15 13:38 | 40.41483 | 27.94374 | 24716 ft | 347 kts | 255° |
| 2026-04-15 13:38 | 40.40811 | 27.91373 | 24472 ft | 347 kts | 255° |
| 2026-04-15 13:38 | 40.40132 | 27.88343 | 24219 ft | 346 kts | 255° |
| 2026-04-15 13:39 | 40.39454 | 27.85317 | 23975 ft | 346 kts | 255° |
| 2026-04-15 13:39 | 40.38776 | 27.82297 | 23737 ft | 345 kts | 255° |
| 2026-04-15 13:39 | 40.38097 | 27.79280 | 23472 ft | 344 kts | 255° |
| 2026-04-15 13:39 | 40.37421 | 27.76279 | 23221 ft | 342 kts | 255° |
| 2026-04-15 13:40 | 40.36747 | 27.73292 | 22971 ft | 341 kts | 255° |
| 2026-04-15 13:40 | 40.36073 | 27.70309 | 22719 ft | 340 kts | 255° |
| 2026-04-15 13:40 | 40.35403 | 27.67345 | 22470 ft | 339 kts | 255° |
| 2026-04-15 13:40 | 40.34734 | 27.64393 | 22220 ft | 337 kts | 255° |
| 2026-04-15 13:41 | 40.34068 | 27.61454 | 21978 ft | 336 kts | 255° |
| 2026-04-15 13:41 | 40.33402 | 27.58521 | 21719 ft | 334 kts | 255° |
| 2026-04-15 13:41 | 40.32740 | 27.55606 | 21467 ft | 333 kts | 255° |
| 2026-04-15 13:41 | 40.32078 | 27.52700 | 21220 ft | 332 kts | 255° |
| 2026-04-15 13:42 | 40.31420 | 27.49809 | 20968 ft | 331 kts | 255° |
| 2026-04-15 13:42 | 40.30762 | 27.46922 | 20722 ft | 330 kts | 255° |
| 2026-04-15 13:42 | 40.30103 | 27.44040 | 20472 ft | 329 kts | 254° |
| 2026-04-15 13:42 | 40.29425 | 27.41180 | 20216 ft | 329 kts | 249° |
| 2026-04-15 13:43 | 40.28214 | 27.38638 | 19948 ft | 332 kts | 229° |
| 2026-04-15 13:43 | 40.26396 | 27.36770 | 19714 ft | 335 kts | 212° |
| 2026-04-15 13:43 | 40.24198 | 27.35717 | 19458 ft | 340 kts | 195° |
| 2026-04-15 13:43 | 40.21862 | 27.35202 | 19231 ft | 340 kts | 192° |
| 2026-04-15 13:44 | 40.19514 | 27.34789 | 18982 ft | 341 kts | 191° |
| 2026-04-15 13:44 | 40.17194 | 27.34395 | 18736 ft | 340 kts | 191° |
| 2026-04-15 13:44 | 40.14846 | 27.33986 | 18486 ft | 339 kts | 191° |
| 2026-04-15 13:44 | 40.12512 | 27.33563 | 18231 ft | 338 kts | 191° |
| 2026-04-15 13:45 | 40.10188 | 27.33132 | 17981 ft | 336 kts | 191° |
| 2026-04-15 13:45 | 40.07881 | 27.32698 | 17723 ft | 334 kts | 191° |
| 2026-04-15 13:45 | 40.05586 | 27.32264 | 17438 ft | 331 kts | 191° |
| 2026-04-15 13:47 | 39.90576 | 27.29504 | 15055 ft | 322 kts | 192° |
| 2026-04-15 13:47 | 39.88360 | 27.29084 | 14688 ft | 321 kts | 192° |
| 2026-04-15 13:47 | 39.86157 | 27.28658 | 14338 ft | 319 kts | 192° |
| 2026-04-15 13:48 | 39.83967 | 27.28235 | 13979 ft | 315 kts | 192° |
| 2026-04-15 13:48 | 39.81932 | 27.27415 | 13623 ft | 301 kts | 213° |
| 2026-04-15 13:48 | 39.80325 | 27.25773 | 13225 ft | 293 kts | 232° |
| 2026-04-15 13:48 | 39.79161 | 27.23628 | 12912 ft | 289 kts | 239° |
| 2026-04-15 13:49 | 39.78116 | 27.21430 | 12562 ft | 289 kts | 240° |
| 2026-04-15 13:49 | 39.77074 | 27.19202 | 12228 ft | 288 kts | 240° |
| 2026-04-15 13:49 | 39.76029 | 27.16989 | 11895 ft | 287 kts | 240° |
| 2026-04-15 13:49 | 39.74978 | 27.14791 | 11615 ft | 284 kts | 240° |
| 2026-04-15 13:50 | 39.73948 | 27.12651 | 11501 ft | 275 kts | 239° |
| 2026-04-15 13:50 | 39.72944 | 27.10574 | 11376 ft | 268 kts | 239° |
| 2026-04-15 13:50 | 39.71950 | 27.08573 | 11297 ft | 258 kts | 237° |
| 2026-04-15 13:50 | 39.70919 | 27.06714 | 11212 ft | 250 kts | 235° |
| 2026-04-15 13:51 | 39.69901 | 27.04934 | 11126 ft | 241 kts | 235° |
| 2026-04-15 13:51 | 39.68901 | 27.03189 | 10960 ft | 242 kts | 235° |
| 2026-04-15 13:51 | 39.67884 | 27.01407 | 10707 ft | 249 kts | 234° |
| 2026-04-15 13:51 | 39.66832 | 26.99559 | 10407 ft | 259 kts | 234° |
| 2026-04-15 13:52 | 39.65751 | 26.97659 | 10101 ft | 263 kts | 234° |
| 2026-04-15 13:52 | 39.64663 | 26.95742 | 9773 ft | 264 kts | 234° |
| 2026-04-15 13:52 | 39.63570 | 26.93820 | 9486 ft | 264 kts | 234° |
| 2026-04-15 13:52 | 39.62481 | 26.91901 | 9187 ft | 265 kts | 233° |
| 2026-04-15 13:53 | 39.61385 | 26.89971 | 8885 ft | 265 kts | 233° |
| 2026-04-15 13:53 | 39.60291 | 26.88044 | 8600 ft | 265 kts | 233° |
| 2026-04-15 13:53 | 39.59198 | 26.86118 | 8309 ft | 265 kts | 233° |
| 2026-04-15 13:53 | 39.58113 | 26.84210 | 8024 ft | 261 kts | 233° |
| 2026-04-15 13:54 | 39.57046 | 26.82334 | 7745 ft | 256 kts | 233° |
| 2026-04-15 13:54 | 39.55997 | 26.80492 | 7479 ft | 252 kts | 233° |
| 2026-04-15 13:54 | 39.54967 | 26.78683 | 7213 ft | 247 kts | 233° |
| 2026-04-15 13:54 | 39.53950 | 26.76898 | 6943 ft | 245 kts | 232° |
| 2026-04-15 13:55 | 39.52949 | 26.75143 | 6687 ft | 245 kts | 232° |
| 2026-04-15 13:55 | 39.51938 | 26.73371 | 6419 ft | 244 kts | 232° |
| 2026-04-15 13:55 | 39.50928 | 26.71601 | 6150 ft | 243 kts | 232° |
| 2026-04-15 13:55 | 39.49922 | 26.69843 | 5889 ft | 243 kts | 231° |
| 2026-04-15 13:56 | 39.48653 | 26.68469 | 5614 ft | 236 kts | 201° |
| 2026-04-15 13:56 | 39.47094 | 26.68179 | 5355 ft | 224 kts | 170° |
| 2026-04-15 13:56 | 39.45661 | 26.68814 | 5112 ft | 215 kts | 148° |
| 2026-04-15 13:56 | 39.44440 | 26.69893 | 4876 ft | 209 kts | 142° |
| 2026-04-15 13:57 | 39.43297 | 26.70997 | 4666 ft | 201 kts | 142° |
| 2026-04-15 13:57 | 39.42193 | 26.72062 | 4450 ft | 195 kts | 142° |
| 2026-04-15 13:57 | 39.41193 | 26.73186 | 4199 ft | 186 kts | 122° |
| 2026-04-15 13:57 | 39.40828 | 26.74703 | 4077 ft | 173 kts | 89° |
| 2026-04-15 13:58 | 39.41156 | 26.76185 | 3923 ft | 173 kts | 57° |
| 2026-04-15 13:58 | 39.41858 | 26.77437 | 3790 ft | 172 kts | 54° |
| 2026-04-15 13:58 | 39.42564 | 26.78684 | 3642 ft | 172 kts | 53° |
| 2026-04-15 13:58 | 39.43269 | 26.79882 | 3507 ft | 164 kts | 53° |
| 2026-04-15 13:59 | 39.43939 | 26.81050 | 3357 ft | 160 kts | 53° |
| 2026-04-15 13:59 | 39.44587 | 26.82195 | 3209 ft | 159 kts | 53° |
| 2026-04-15 13:59 | 39.45239 | 26.83351 | 3088 ft | 159 kts | 53° |
| 2026-04-15 13:59 | 39.45897 | 26.84515 | 2880 ft | 161 kts | 53° |
| 2026-04-15 14:00 | 39.46552 | 26.85672 | 2678 ft | 159 kts | 53° |
| 2026-04-15 14:00 | 39.47208 | 26.86832 | 2472 ft | 160 kts | 53° |
| 2026-04-15 14:00 | 39.47853 | 26.87971 | 2236 ft | 156 kts | 54° |
| 2026-04-15 14:00 | 39.48481 | 26.89085 | 2049 ft | 152 kts | 54° |
| 2026-04-15 14:01 | 39.49750 | 26.91327 | 1632 ft | 154 kts | 55° |
| 2026-04-15 14:01 | 39.50381 | 26.92442 | 1428 ft | 153 kts | 55° |
| 2026-04-15 14:01 | 39.51008 | 26.93550 | 1227 ft | 153 kts | 55° |
| 2026-04-15 14:02 | 39.51640 | 26.94665 | 1029 ft | 154 kts | 55° |
| 2026-04-15 14:02 | 39.52272 | 26.95781 | 802 ft | 152 kts | 55° |
| 2026-04-15 14:02 | 39.52903 | 26.96864 | 539 ft | 149 kts | 55° |
| 2026-04-15 14:02 | 39.53497 | 26.97967 | 317 ft | 148 kts | 56° |
| 2026-04-15 14:03 | 39.54121 | 26.99022 | 172 ft | 145 kts | 56° |
| 2026-04-15 14:03 | 39.54700 | 27.00068 | 52 ft | 137 kts | 54° |
| 2026-04-15 14:03 | 39.55197 | 27.00946 | 48 ft | 100 kts | 53° |
| 2026-04-15 14:03 | 39.55496 | 27.01479 | 50 ft | 42 kts | 52° |
| 2026-04-15 14:04 | 39.55666 | 27.01773 | 50 ft | 39 kts | 53° |
| 2026-04-15 14:04 | 39.55814 | 27.02034 | 53 ft | 26 kts | 53° |
| 2026-04-15 14:04 | 39.55855 | 27.02106 | 55 ft | 9 kts | 54° |
| 2026-04-15 14:04 | 39.55891 | 27.02171 | 58 ft | 9 kts | 53° |
| 2026-04-15 14:05 | 39.55926 | 27.02232 | 58 ft | 8 kts | 54° |
| 2026-04-15 14:05 | 39.55962 | 27.02291 | 58 ft | 8 kts | 43° |
| 2026-04-15 14:05 | 39.56012 | 27.02322 | 57 ft | 8 kts | 18° |
| 2026-04-15 14:05 | 39.56053 | 27.02361 | 58 ft | 7 kts | 65° |
| 2026-04-15 14:06 | 39.56026 | 27.02401 | 59 ft | 7 kts | 189° |
| 2026-04-15 14:06 | 39.55993 | 27.02352 | 58 ft | 8 kts | 237° |
| 2026-04-15 14:06 | 39.55963 | 27.02296 | 58 ft | 7 kts | 234° |
| 2026-04-15 14:06 | 39.55933 | 27.02242 | 53 ft | 8 kts | 234° |
| 2026-04-15 14:07 | 39.55894 | 27.02175 | 58 ft | 11 kts | 232° |
| 2026-04-15 14:07 | 39.55838 | 27.02076 | 49 ft | 16 kts | 234° |
| 2026-04-15 14:07 | 39.55763 | 27.01944 | 51 ft | 19 kts | 234° |
| 2026-04-15 14:07 | 39.55679 | 27.01794 | 50 ft | 23 kts | 233° |
| 2026-04-15 14:08 | 39.55585 | 27.01629 | 50 ft | 23 kts | 233° |
| 2026-04-15 14:08 | 39.55491 | 27.01465 | 52 ft | 23 kts | 233° |
| 2026-04-15 14:08 | 39.55397 | 27.01298 | 49 ft | 23 kts | 234° |
| 2026-04-15 14:08 | 39.55318 | 27.01158 | 52 ft | 14 kts | 233° |
| 2026-04-15 14:09 | 39.55274 | 27.01080 | 52 ft | 12 kts | 233° |
| 2026-04-15 14:09 | 39.55220 | 27.00985 | 50 ft | 10 kts | 233° |
| 2026-04-15 14:09 | 39.55191 | 27.00939 | 48 ft | 5 kts | 222° |
| 2026-04-15 14:09 | 39.55170 | 27.00935 | 48 ft | 3 kts | 166° |
| 2026-04-15 14:10 | 39.55152 | 27.00954 | 48 ft | 4 kts | 140° |
| 2026-04-15 14:10 | 39.55120 | 27.00985 | 48 ft | 7 kts | 143° |
| 2026-04-15 14:10 | 39.55074 | 27.01029 | 47 ft | 10 kts | 144° |
| 2026-04-15 14:10 | 39.55026 | 27.01072 | 49 ft | 5 kts | 145° |
| 2026-04-15 14:11 | 39.54996 | 27.01100 | 50 ft | 5 kts | 147° |
| 2026-04-15 14:11 | 39.54964 | 27.01099 | 50 ft | 3 kts | 210° |
| 2026-04-15 14:11 | 39.54949 | 27.01090 | 50 ft | 2 kts | 182° |
| 2026-04-15 14:11 | 39.54934 | 27.01094 | 50 ft | 2 kts | 162° |
| 2026-04-15 14:12 | 39.54924 | 27.01102 | 50 ft | 2 kts | 148° |
| 2026-04-15 14:12 | 39.54914 | 27.01110 | 50 ft | 2 kts | 146° |
| 2026-04-15 14:12 | 39.54908 | 27.01115 | 50 ft | 1 kts | 145° |
| 2026-04-15 14:12 | 39.54905 | 27.01118 | 50 ft | 1 kts | 145° |